»·PEaware :: N8068C KRNM-KSBA

N8068C :: KRNM-KSBA

FLIGHT INFORMATION

Flight Status: Arrived
Operator: Privately registered:
United States
More flights under this callsign
Pilot: Ryan B. (29)
Aircraft: Unknown
(LNC4)
More flights by this aircraft type
Origin: KRNM Ramona
United States
Destination: KSBA Santa Barbara Mun
United States
More flights between these airports :: More routes between these airports
Route: +ODP ROBNN OCN V23 LAX V299 VTU KWANG
File this flight plan on PilotEdge
Remarks: charts / V /
Altitude:
(Current/Filed)
60ft
Speed:
(Current/Filed)
210kts
Departed: 05-Mar-12 12:47 PM
Arrived: 05-Mar-12 01:36 PM
Distance/Time
Traveled:
168nm/0:48
Distance/Time
To Go:
Arrived

Flight Plot

Page will automatically refresh every two minutes.

Flight plan parsing failed; only flown route is shown


Map Options




Map Legend


Flown Route
Filed Route
Departure Airport
Arrival Airport
Navaid (VOR, NDB)
Fix

Horizontal Profiles

Position Reports

Time Latitude Longitude Heading Altitude Ground
Speed
05-Mar-12 12:35 33.040254 -116.914188 166 1397ft 0kts
05-Mar-12 12:36 33.040250 -116.914186 165 1397ft 0kts
05-Mar-12 12:37 33.040245 -116.914185 164 1397ft 0kts
05-Mar-12 12:38 33.040240 -116.914183 163 1397ft 0kts
05-Mar-12 12:39 33.040237 -116.914182 163 1397ft 0kts
05-Mar-12 12:40 33.040234 -116.914181 162 1397ft 0kts
05-Mar-12 12:41 33.040232 -116.914180 162 1397ft 0kts
05-Mar-12 12:42 33.040229 -116.914179 161 1397ft 0kts
05-Mar-12 12:43 33.040226 -116.914178 160 1397ft 0kts
05-Mar-12 12:44 33.039519 -116.913383 99 1397ft 23kts
05-Mar-12 12:45 33.038684 -116.907714 99 1397ft 11kts
05-Mar-12 12:46 33.040636 -116.926656 275 1591ft 123kts
05-Mar-12 12:47 33.049073 -116.971510 287 3120ft 156kts
05-Mar-12 12:48 33.065089 -117.024036 287 4664ft 176kts
05-Mar-12 12:49 33.104917 -117.058909 338 5869ft 205kts
05-Mar-12 12:50 33.159321 -117.094498 296 6000ft 236kts
05-Mar-12 12:51 33.172107 -117.155617 287 6000ft 225kts
05-Mar-12 12:52 33.191518 -117.226080 286 5984ft 220kts
05-Mar-12 12:53 33.210015 -117.298414 285 6000ft 235kts
05-Mar-12 12:54 33.229405 -117.374537 285 6000ft 242kts
05-Mar-12 12:55 33.262434 -117.443183 314 6003ft 245kts
05-Mar-12 12:56 33.311431 -117.500737 313 6000ft 247kts
05-Mar-12 12:57 33.360684 -117.558420 313 6000ft 247kts
05-Mar-12 12:58 33.409783 -117.615848 313 6000ft 247kts
05-Mar-12 12:59 33.459041 -117.673555 313 6000ft 247kts
05-Mar-12 13:00 33.508281 -117.731341 313 5999ft 247kts
05-Mar-12 13:01 33.557492 -117.789188 313 5999ft 247kts
05-Mar-12 13:02 33.606475 -117.846865 313 5999ft 247kts
05-Mar-12 13:03 33.655603 -117.904811 313 6001ft 247kts
05-Mar-12 13:04 33.704677 -117.962792 313 6000ft 247kts
05-Mar-12 13:05 33.753564 -118.020650 313 6000ft 247kts
05-Mar-12 13:06 33.791093 -118.087228 284 6003ft 244kts
05-Mar-12 13:07 33.810381 -118.163824 285 5999ft 244kts
05-Mar-12 13:08 33.830257 -118.242040 285 5995ft 244kts
05-Mar-12 13:09 33.850021 -118.320313 285 5998ft 244kts
05-Mar-12 13:10 33.888440 -118.385391 318 5995ft 245kts
05-Mar-12 13:11 33.936303 -118.442700 294 5991ft 242kts
05-Mar-12 13:12 33.971947 -118.510665 311 6001ft 245kts
05-Mar-12 13:13 34.018884 -118.570700 311 6000ft 245kts
05-Mar-12 13:14 34.065155 -118.631135 301 5992ft 244kts
05-Mar-12 13:15 34.075252 -118.710893 273 6000ft 242kts
05-Mar-12 13:16 34.082653 -118.791616 277 6000ft 242kts
05-Mar-12 13:17 34.092473 -118.872388 278 5999ft 242kts
05-Mar-12 13:18 34.102413 -118.953133 278 6000ft 242kts
05-Mar-12 13:19 34.112260 -119.033741 277 5999ft 242kts
05-Mar-12 13:20 34.138977 -119.108574 295 6002ft 244kts
05-Mar-12 13:21 34.169446 -119.181538 295 6001ft 244kts
05-Mar-12 13:22 34.200084 -119.254917 295 6001ft 244kts
05-Mar-12 13:23 34.230889 -119.327932 297 5992ft 237kts
05-Mar-12 13:24 34.258079 -119.393048 296 5989ft 193kts
05-Mar-12 13:25 34.279458 -119.444868 294 5684ft 166kts
05-Mar-12 13:26 34.300443 -119.494945 297 4996ft 166kts
05-Mar-12 13:27 34.321035 -119.545242 294 4351ft 166kts
05-Mar-12 13:28 34.340565 -119.595206 293 3897ft 161kts
05-Mar-12 13:29 34.359154 -119.643228 293 3437ft 144kts
05-Mar-12 13:30 34.374680 -119.683464 292 2753ft 126kts
05-Mar-12 13:31 34.388934 -119.720406 291 2098ft 116kts
05-Mar-12 13:32 34.402067 -119.755398 291 1257ft 113kts
05-Mar-12 13:33 34.416712 -119.787423 296 917ft 107kts
05-Mar-12 13:34 34.428158 -119.819913 271 415ft 101kts
05-Mar-12 13:35 34.427637 -119.845143 275 14ft 24kts
05-Mar-12 13:36 34.429199 -119.845845 328 14ft 0kts

Navigation Log

Ident Type
Flight plan parsing failed, navigation log unavailable